Time;durP1;ratioP1;P1;durP2;ratioP2;P2;SDS_P1;SDS_P2;PMS_P1;PMS_P2;Temp;Humidity;BMP_temperature;BMP_pressure;BME280_temperature;BME280_humidity;BME280_pressure;Samples;Min_cycle;Max_cycle;Signal;HPM_P1;HPM_P2
2022/06/01 00:00:57;;;;;;;7.13;3.47;;;11.10;99.90;;;;;;5072253;28;20040;-73
2022/06/01 00:03:24;;;;;;;6.85;3.60;;;11.70;99.90;;;;;;5055526;28;20043;-73
2022/06/01 00:05:53;;;;;;;5.30;3.28;;;11.40;99.90;;;;;;5071979;28;20032;-73
2022/06/01 00:08:23;;;;;;;4.53;3.35;;;11.30;99.90;;;;;;5071888;28;20046;-73
2022/06/01 00:10:49;;;;;;;8.30;3.35;;;11.00;99.90;;;;;;5072078;28;20395;-73
2022/06/01 00:13:16;;;;;;;5.38;3.13;;;11.30;99.90;;;;;;5038618;28;20044;-73
2022/06/01 00:15:42;;;;;;;6.53;4.60;;;11.40;99.90;;;;;;5071908;28;20052;-73
2022/06/01 00:18:08;;;;;;;6.53;3.25;;;11.50;99.90;;;;;;5055016;28;20063;-73
2022/06/01 00:20:35;;;;;;;6.07;3.75;;;11.00;99.90;;;;;;5071114;28;20076;-73
2022/06/01 00:23:01;;;;;;;5.55;3.70;;;11.20;99.90;;;;;;5071907;28;20434;-73
2022/06/01 00:25:27;;;;;;;3.88;3.05;;;11.40;99.90;;;;;;5071679;28;20036;-73
2022/06/01 00:27:53;;;;;;;6.72;3.40;;;11.10;99.90;;;;;;5071743;28;20158;-73
2022/06/01 00:30:20;;;;;;;6.10;3.80;;;11.40;99.90;;;;;;5071636;28;20086;-73
2022/06/01 00:32:46;;;;;;;5.68;3.35;;;11.20;99.90;;;;;;5071857;28;20450;-73
2022/06/01 00:35:14;;;;;;;6.00;3.58;;;11.60;99.90;;;;;;5054923;28;20037;-73
2022/06/01 00:37:40;;;;;;;3.80;2.70;;;11.00;99.90;;;;;;5071563;28;20045;-74
2022/06/01 00:40:09;;;;;;;5.72;3.80;;;11.40;99.90;;;;;;5071584;28;20037;-73
2022/06/01 00:42:37;;;;;;;6.15;2.92;;;11.10;99.90;;;;;;5071540;28;20044;-74
2022/06/01 00:45:05;;;;;;;5.93;3.40;;;11.10;99.90;;;;;;5054795;28;20051;-73
2022/06/01 00:47:30;;;;;;;5.28;3.38;;;11.10;99.90;;;;;;5055262;28;20040;-73
2022/06/01 00:50:06;;;;;;;6.40;3.55;;;11.20;99.90;;;;;;5054758;28;20099;-73
2022/06/01 00:52:35;;;;;;;6.53;3.03;;;11.10;99.90;;;;;;5071440;28;20052;-73
2022/06/01 00:55:15;;;;;;;5.68;3.40;;;11.40;99.90;;;;;;5071396;28;20048;-73
2022/06/01 00:57:42;;;;;;;6.40;3.10;;;11.50;99.90;;;;;;5054591;28;20070;-73
2022/06/01 01:00:24;;;;;;;6.35;3.53;;;11.90;99.90;;;;;;5054665;28;20051;-73
2022/06/01 01:02:55;;;;;;;5.35;3.15;;;11.20;99.90;;;;;;5071337;28;20194;-73
2022/06/01 01:05:22;;;;;;;5.28;3.25;;;11.10;99.90;;;;;;5054641;28;20037;-73
2022/06/01 01:07:51;;;;;;;8.15;3.65;;;11.40;99.90;;;;;;5071655;28;20444;-73
2022/06/01 01:10:17;;;;;;;6.43;3.95;;;11.50;99.90;;;;;;5071257;28;20041;-73
2022/06/01 01:12:56;;;;;;;7.80;3.70;;;11.60;99.90;;;;;;5071200;28;20063;-73
2022/06/01 01:15:27;;;;;;;7.30;3.72;;;11.40;99.90;;;;;;5071158;28;20052;-73
2022/06/01 01:17:54;;;;;;;7.25;4.00;;;11.00;99.90;;;;;;5071092;28;20563;-73
2022/06/01 01:20:20;;;;;;;6.93;3.95;;;11.10;99.90;;;;;;5071478;28;20052;-73
2022/06/01 01:22:51;;;;;;;6.90;3.97;;;11.50;99.90;;;;;;5071119;28;20041;-73
2022/06/01 01:25:17;;;;;;;;;;;11.40;99.90;;;;;;5055096;28;20473;-73
2022/06/01 01:27:45;;;;;;;8.90;4.45;;;10.90;99.90;;;;;;5071099;28;19920;-73
2022/06/01 01:30:38;;;;;;;7.68;4.70;;;11.40;99.90;;;;;;5071705;28;20044;-73
2022/06/01 01:33:13;;;;;;;5.18;3.75;;;11.30;99.90;;;;;;5075003;28;20044;-73
2022/06/01 01:35:41;;;;;;;7.88;4.45;;;11.20;99.90;;;;;;5074703;28;20048;-73
2022/06/01 01:38:22;;;;;;;5.75;4.25;;;11.60;99.90;;;;;;5057972;28;20106;-73
2022/06/01 01:41:03;;;;;;;5.53;4.13;;;11.80;99.90;;;;;;5074655;28;20102;-73
2022/06/01 01:43:32;;;;;;;9.43;4.35;;;11.20;99.90;;;;;;5074579;28;20072;-73
2022/06/01 01:45:57;;;;;;;6.25;4.22;;;11.20;99.90;;;;;;5074473;28;20124;-73
2022/06/01 01:48:23;;;;;;;6.13;4.25;;;11.20;99.90;;;;;;5041206;28;20502;-73
2022/06/01 01:50:49;;;;;;;7.57;3.92;;;11.10;99.90;;;;;;5057798;28;20381;-73
2022/06/01 01:53:15;;;;;;;7.50;3.35;;;11.40;99.90;;;;;;5074729;28;20495;-73
2022/06/01 01:55:53;;;;;;;6.60;3.65;;;11.30;99.90;;;;;;5057650;28;20101;-73
2022/06/01 01:58:49;;;;;;;7.28;4.40;;;11.10;99.90;;;;;;5074359;28;20040;-74
2022/06/01 02:01:26;;;;;;;7.70;4.28;;;11.00;99.90;;;;;;5065954;28;20057;-73
2022/06/01 02:04:00;;;;;;;7.70;4.35;;;11.20;99.90;;;;;;5074218;28;20040;-73
2022/06/01 02:06:37;;;;;;;7.53;4.00;;;11.00;99.90;;;;;;5074193;28;20123;-73
2022/06/01 02:09:07;;;;;;;7.45;4.15;;;11.10;99.90;;;;;;5074167;28;20086;-73
2022/06/01 02:14:51;;;;;;;6.03;3.80;;;11.00;99.90;;;;;;5074027;28;20114;-73
2022/06/01 02:17:23;;;;;;;4.78;3.47;;;10.90;99.90;;;;;;5074074;28;20434;-73
2022/06/01 02:20:20;;;;;;;5.15;4.05;;;11.20;99.90;;;;;;5057037;28;20057;-73
2022/06/01 02:22:46;;;;;;;8.38;3.97;;;10.90;99.90;;;;;;5050098;28;20426;-73
2022/06/01 02:25:12;;;;;;;5.55;3.70;;;10.90;99.90;;;;;;5040858;28;20047;-73
2022/06/01 02:27:41;;;;;;;7.95;4.10;;;10.90;99.90;;;;;;5073820;28;20109;-73
2022/06/01 02:30:22;;;;;;;8.65;4.13;;;11.20;99.90;;;;;;5073720;28;20051;-73
2022/06/01 02:32:48;;;;;;;7.47;4.13;;;10.80;99.90;;;;;;5073805;28;20403;-73
2022/06/01 02:35:18;;;;;;;5.80;3.78;;;11.10;99.90;;;;;;5073649;28;20127;-73
2022/06/01 02:37:48;;;;;;;7.63;4.45;;;10.90;99.90;;;;;;5073789;28;20052;-73
2022/06/01 02:40:19;;;;;;;7.40;4.73;;;11.30;99.90;;;;;;5057184;28;20040;-73
2022/06/01 02:42:46;;;;;;;7.20;4.45;;;10.80;99.90;;;;;;5072955;28;20639;-73
2022/06/01 02:45:13;;;;;;;7.90;3.75;;;10.90;99.90;;;;;;5073793;28;20544;-73
2022/06/01 02:47:42;;;;;;;7.80;4.22;;;10.90;99.90;;;;;;5073520;28;20061;-73
2022/06/01 02:50:12;;;;;;;5.65;4.13;;;11.10;99.90;;;;;;5073433;28;20040;-73
2022/06/01 02:52:38;;;;;;;6.13;3.90;;;10.80;99.90;;;;;;5073361;28;20047;-73
2022/06/01 02:55:05;;;;;;;7.45;4.20;;;10.80;99.90;;;;;;5073494;28;20403;-73
2022/06/01 02:57:37;;;;;;;6.07;4.25;;;10.70;99.90;;;;;;5056950;28;20045;-73
2022/06/01 03:00:07;;;;;;;6.05;4.30;;;10.80;99.90;;;;;;5073443;28;20487;-73
2022/06/01 03:02:38;;;;;;;6.07;4.13;;;10.80;99.90;;;;;;5073426;28;20438;-73
2022/06/01 03:05:04;;;;;;;6.18;3.65;;;11.00;99.90;;;;;;5072996;28;20094;-73
2022/06/01 03:07:30;;;;;;;7.70;4.70;;;10.70;99.90;;;;;;5073212;28;20449;-73
2022/06/01 03:09:55;;;;;;;6.32;4.20;;;10.80;99.90;;;;;;5072892;28;20090;-73
2022/06/01 03:12:22;;;;;;;8.43;4.68;;;11.10;99.90;;;;;;5056700;28;20416;-73
2022/06/01 03:14:47;;;;;;;7.45;4.55;;;11.80;99.90;;;;;;5072926;28;20048;-73
2022/06/01 03:17:13;;;;;;;6.28;3.90;;;11.00;99.90;;;;;;5073032;28;20450;-73
2022/06/01 03:19:39;;;;;;;9.98;6.00;;;11.40;99.90;;;;;;5055949;28;20048;-73
2022/06/01 03:22:04;;;;;;;6.40;4.70;;;10.80;99.90;;;;;;5072670;28;20041;-73
2022/06/01 03:24:30;;;;;;;6.57;4.72;;;10.70;99.90;;;;;;5072870;28;20424;-73
2022/06/01 03:26:56;;;;;;;9.90;5.50;;;10.80;99.90;;;;;;5072509;28;20044;-73
2022/06/01 03:29:24;;;;;;;7.80;5.05;;;11.00;99.90;;;;;;5072832;28;20056;-73
2022/06/01 03:31:51;;;;;;;8.00;4.13;;;11.10;99.90;;;;;;5072852;28;20033;-73
2022/06/01 03:34:18;;;;;;;6.85;5.07;;;11.00;99.90;;;;;;5072724;28;20059;-73
2022/06/01 03:36:43;;;;;;;11.95;5.50;;;10.80;99.90;;;;;;5072383;28;20104;-73
2022/06/01 03:39:09;;;;;;;8.65;5.72;;;10.80;99.90;;;;;;5055690;28;20127;-73
2022/06/01 03:41:35;;;;;;;8.70;6.07;;;11.30;99.90;;;;;;5072394;28;20037;-73
2022/06/01 03:46:46;;;;;;;8.68;5.78;;;10.80;99.90;;;;;;5072260;28;20229;-73
2022/06/01 03:49:12;;;;;;;7.28;5.55;;;11.10;99.90;;;;;;5055825;28;20162;-73
2022/06/01 03:51:38;;;;;;;9.18;5.50;;;10.90;99.90;;;;;;5055763;28;20033;-73
2022/06/01 03:54:06;;;;;;;7.82;5.47;;;10.90;99.90;;;;;;5072437;28;20048;-74
2022/06/01 03:56:32;;;;;;;8.95;6.38;;;10.70;99.90;;;;;;5055181;28;20150;-73
2022/06/01 03:58:59;;;;;;;7.82;5.10;;;10.80;99.90;;;;;;5071893;28;20141;-73
2022/06/01 04:01:24;;;;;;;9.27;5.90;;;11.20;99.90;;;;;;5072030;28;20037;-73
2022/06/01 04:03:50;;;;;;;12.05;6.20;;;10.80;99.90;;;;;;5072152;28;20059;-73
2022/06/01 04:06:16;;;;;;;9.07;5.80;;;10.80;99.90;;;;;;5055323;28;20411;-73
2022/06/01 04:08:41;;;;;;;9.80;5.45;;;11.30;99.90;;;;;;5071937;28;20459;-73
2022/06/01 04:11:07;;;;;;;9.55;5.57;;;11.20;99.90;;;;;;5055183;28;20059;-73
2022/06/01 04:13:33;;;;;;;15.90;6.18;;;11.20;99.90;;;;;;5071834;28;20036;-73
2022/06/01 04:15:59;;;;;;;10.48;6.15;;;11.20;99.90;;;;;;5055172;28;20090;-73
2022/06/01 04:18:25;;;;;;;9.55;5.63;;;11.00;99.90;;;;;;5105453;28;20056;-73
2022/06/01 04:20:53;;;;;;;8.25;5.43;;;11.00;99.90;;;;;;5071809;28;20044;-73
2022/06/01 04:23:19;;;;;;;9.43;5.15;;;11.10;99.90;;;;;;5072013;28;20036;-73
2022/06/01 04:25:45;;;;;;;7.22;5.80;;;11.30;99.90;;;;;;5071850;28;20044;-73
2022/06/01 04:28:11;;;;;;;9.75;6.00;;;11.10;99.90;;;;;;5071899;28;20056;-73
2022/06/01 04:30:37;;;;;;;8.77;5.82;;;10.90;99.90;;;;;;5071626;28;20044;-73
2022/06/01 04:33:03;;;;;;;11.75;6.28;;;11.10;99.90;;;;;;5055210;28;20039;-73
2022/06/01 04:35:30;;;;;;;9.25;5.93;;;11.40;99.90;;;;;;5054850;28;20043;-73
2022/06/01 04:38:12;;;;;;;8.85;5.60;;;11.20;99.90;;;;;;5071455;28;20407;-73
2022/06/01 04:40:43;;;;;;;9.23;5.38;;;11.10;99.90;;;;;;5073824;28;20037;-73
2022/06/01 04:43:10;;;;;;;10.75;6.90;;;11.10;99.90;;;;;;5071646;28;20408;-73
2022/06/01 04:45:35;;;;;;;9.27;6.72;;;11.60;99.90;;;;;;5071724;28;20373;-73
2022/06/01 04:48:01;;;;;;;10.20;6.30;;;11.60;99.90;;;;;;5071698;28;20124;-73
2022/06/01 04:50:27;;;;;;;12.10;6.20;;;11.20;99.90;;;;;;5038207;28;20036;-73
2022/06/01 04:52:52;;;;;;;10.02;6.30;;;11.40;99.90;;;;;;5071767;28;20041;-73
2022/06/01 04:55:18;;;;;;;8.48;6.25;;;11.60;99.90;;;;;;5071384;28;20036;-73
2022/06/01 04:57:44;;;;;;;10.13;5.85;;;11.20;99.90;;;;;;5071391;28;20101;-73
2022/06/01 05:00:11;;;;;;;9.13;5.75;;;11.10;99.90;;;;;;5055373;28;20384;-73
2022/06/01 05:02:36;;;;;;;7.55;6.40;;;11.30;99.90;;;;;;5071569;28;20442;-73
2022/06/01 05:05:03;;;;;;;12.10;6.35;;;11.30;99.90;;;;;;5105442;28;20036;-73
2022/06/01 05:07:29;;;;;;;6.60;5.20;;;11.40;99.90;;;;;;5057716;28;20040;-74
2022/06/01 05:09:54;;;;;;;9.60;6.35;;;11.50;99.90;;;;;;5075619;28;20592;-74
2022/06/01 05:12:20;;;;;;;9.25;5.90;;;11.40;99.90;;;;;;5058841;28;20044;-73
2022/06/01 05:14:46;;;;;;;7.80;5.55;;;11.50;99.90;;;;;;5075169;28;20044;-73
2022/06/01 05:17:12;;;;;;;7.50;5.43;;;11.50;99.90;;;;;;5058500;28;20114;-74
2022/06/01 05:19:37;;;;;;;9.43;6.32;;;11.70;99.90;;;;;;5074984;28;20053;-73
2022/06/01 05:22:03;;;;;;;8.40;5.90;;;11.60;99.90;;;;;;5058448;28;20412;-72
2022/06/01 05:24:29;;;;;;;9.25;5.43;;;11.60;99.90;;;;;;5075241;28;20480;-73
2022/06/01 05:26:55;;;;;;;7.90;5.38;;;11.70;99.90;;;;;;5058221;28;20123;-73
2022/06/01 05:29:22;;;;;;;12.20;5.95;;;11.80;99.90;;;;;;5074867;28;20492;-74
2022/06/01 05:31:49;;;;;;;8.10;5.43;;;11.60;99.90;;;;;;5058529;28;20048;-73
2022/06/01 05:34:15;;;;;;;11.57;5.95;;;11.60;99.90;;;;;;5058131;28;20144;-73
2022/06/01 05:36:40;;;;;;;9.60;5.95;;;11.60;99.90;;;;;;5058052;28;20128;-73
2022/06/01 05:39:06;;;;;;;9.45;5.28;;;11.60;99.90;;;;;;5057977;28;20044;-73
2022/06/01 05:41:32;;;;;;;8.45;5.43;;;11.50;99.90;;;;;;5041603;28;20449;-74
2022/06/01 05:43:58;;;;;;;9.60;5.90;;;11.60;99.90;;;;;;5041484;28;20036;-72
2022/06/01 05:46:24;;;;;;;6.90;5.07;;;12.40;99.90;;;;;;5074822;28;20044;-73
2022/06/01 05:48:49;;;;;;;7.80;5.57;;;11.60;99.90;;;;;;5074810;28;20052;-73
2022/06/01 05:51:15;;;;;;;8.85;5.30;;;11.60;99.90;;;;;;5058098;28;20044;-73
2022/06/01 05:53:41;;;;;;;8.93;5.65;;;11.60;99.90;;;;;;5041319;28;20072;-73
2022/06/01 05:56:07;;;;;;;9.10;5.30;;;11.60;99.90;;;;;;5057819;28;20406;-73
2022/06/01 05:58:32;;;;;;;10.82;5.07;;;11.60;99.90;;;;;;5108036;28;20044;-73
2022/06/01 06:01:05;;;;;;;11.70;6.20;;;12.10;99.90;;;;;;5057619;28;20047;-75
2022/06/01 06:03:32;;;;;;;8.40;5.00;;;11.80;99.90;;;;;;5074276;28;20040;-74
2022/06/01 06:06:17;;;;;;;8.27;5.50;;;11.70;99.90;;;;;;5074524;28;20049;-74
2022/06/01 06:08:48;;;;;;;6.22;4.70;;;11.80;99.90;;;;;;5074354;28;20041;-75
2022/06/01 06:11:15;;;;;;;10.35;5.45;;;11.90;99.90;;;;;;5057308;28;20127;-73
2022/06/01 06:13:41;;;;;;;6.95;4.70;;;12.10;99.90;;;;;;5057485;28;20471;-73
2022/06/01 06:16:07;;;;;;;9.15;4.55;;;11.90;99.90;;;;;;5074178;28;20089;-75
2022/06/01 06:18:33;;;;;;;5.47;4.15;;;12.10;99.90;;;;;;5072755;28;20040;-73
2022/06/01 06:20:59;;;;;;;5.45;3.88;;;12.00;99.90;;;;;;5073782;28;20036;-73
2022/06/01 06:23:24;;;;;;;5.95;3.85;;;12.20;99.90;;;;;;5073664;28;20036;-73
2022/06/01 06:25:50;;;;;;;6.28;3.97;;;12.10;99.90;;;;;;5057010;28;20090;-73
2022/06/01 06:28:15;;;;;;;6.13;4.43;;;12.10;99.90;;;;;;5056969;28;20051;-73
2022/06/01 06:30:42;;;;;;;6.00;4.53;;;12.10;99.90;;;;;;5056946;28;20036;-75
2022/06/01 06:33:08;;;;;;;8.35;4.40;;;12.60;99.90;;;;;;5073444;28;20037;-73
2022/06/01 06:35:34;;;;;;;8.00;3.65;;;12.30;99.90;;;;;;5056826;28;20048;-73
2022/06/01 06:38:01;;;;;;;7.38;3.97;;;12.50;99.90;;;;;;5056731;28;20040;-73
2022/06/01 06:40:27;;;;;;;6.95;3.90;;;12.30;99.90;;;;;;5073600;28;20487;-73
2022/06/01 06:42:53;;;;;;;5.47;3.38;;;12.40;99.90;;;;;;5056664;28;20047;-73
2022/06/01 06:45:22;;;;;;;6.50;3.88;;;12.40;99.90;;;;;;5073262;28;20078;-73
2022/06/01 06:47:48;;;;;;;5.63;3.65;;;12.50;99.90;;;;;;5057350;28;20400;-73
2022/06/01 06:50:17;;;;;;;6.95;4.03;;;12.60;99.90;;;;;;5073558;28;20036;-73
2022/06/01 06:52:43;;;;;;;4.88;3.42;;;12.60;99.90;;;;;;5073037;28;20089;-73
2022/06/01 06:55:10;;;;;;;5.07;3.45;;;12.60;99.90;;;;;;5039964;28;20040;-73
2022/06/01 06:57:35;;;;;;;5.55;3.72;;;12.60;99.90;;;;;;5056581;28;20411;-73
2022/06/01 07:00:05;;;;;;;5.13;2.97;;;12.60;99.90;;;;;;5073049;28;20036;-72
2022/06/01 07:02:31;;;;;;;5.32;3.60;;;12.70;99.90;;;;;;5056654;28;20059;-72
2022/06/01 07:04:57;;;;;;;7.95;4.00;;;12.70;99.90;;;;;;5073201;28;20033;-72
2022/06/01 07:07:22;;;;;;;6.10;4.05;;;12.70;99.90;;;;;;5072831;28;20048;-72
2022/06/01 07:09:48;;;;;;;6.82;4.20;;;12.70;99.90;;;;;;5039698;28;20040;-72
2022/06/01 07:12:14;;;;;;;7.32;4.28;;;12.80;99.90;;;;;;5072959;28;20454;-72
2022/06/01 07:14:40;;;;;;;8.30;4.50;;;12.80;99.90;;;;;;5039585;28;20142;-72
2022/06/01 07:17:06;;;;;;;7.20;4.72;;;12.90;99.90;;;;;;5072570;28;20044;-72
2022/06/01 07:19:33;;;;;;;6.45;4.43;;;12.90;99.90;;;;;;5072645;28;20058;-72
2022/06/01 07:21:59;;;;;;;9.50;5.15;;;12.90;99.90;;;;;;5072578;28;20032;-72
2022/06/01 07:24:24;;;;;;;7.25;5.20;;;13.00;99.90;;;;;;5072427;28;20093;-72
2022/06/01 07:26:50;;;;;;;8.05;5.00;;;13.00;99.90;;;;;;5056083;28;20043;-72
2022/06/01 07:29:18;;;;;;;8.98;5.93;;;13.10;99.90;;;;;;5072236;28;20047;-72
2022/06/01 07:31:45;;;;;;;8.35;4.95;;;13.20;99.90;;;;;;5072695;28;20480;-72
2022/06/01 07:34:12;;;;;;;9.00;4.85;;;13.50;99.90;;;;;;5055625;28;20101;-72
2022/06/01 07:36:37;;;;;;;8.90;5.55;;;13.40;99.90;;;;;;5072483;28;20045;-72
2022/06/01 07:44:49;;;;;;;8.68;4.85;;;13.80;99.90;;;;;;5072342;28;20037;-73
2022/06/01 07:47:15;;;;;;;5.85;4.28;;;14.20;99.90;;;;;;5056466;28;20426;-73
2022/06/01 07:49:41;;;;;;;6.97;4.15;;;14.10;99.90;;;;;;5072437;28;20491;-73
2022/06/01 07:52:12;;;;;;;5.75;3.70;;;14.20;99.90;;;;;;5072275;28;20075;-72
2022/06/01 07:54:40;;;;;;;5.68;3.58;;;14.10;99.90;;;;;;5072462;28;20041;-73
2022/06/01 07:57:06;;;;;;;5.90;3.97;;;14.10;99.90;;;;;;5072026;28;20111;-73
2022/06/01 07:59:33;;;;;;;6.18;4.30;;;14.00;99.90;;;;;;5055333;28;20132;-73
2022/06/01 08:01:58;;;;;;;11.27;5.38;;;13.80;99.90;;;;;;5055584;28;20040;-74
2022/06/01 08:04:25;;;;;;;9.15;4.78;;;13.60;99.90;;;;;;5071837;28;20036;-74
2022/06/01 08:06:51;;;;;;;8.88;4.85;;;13.50;99.90;;;;;;5072097;28;20040;-74
2022/06/01 08:09:17;;;;;;;6.55;4.15;;;13.40;99.90;;;;;;5055239;28;20059;-77
2022/06/01 08:14:27;;;;;;;7.50;5.07;;;13.10;99.90;;;;;;5058079;28;20515;-78
2022/06/01 08:16:52;;;;;;;7.72;4.90;;;12.90;99.90;;;;;;5055412;28;20048;-80
2022/06/01 08:19:19;;;;;;;5.72;3.28;;;12.80;99.90;;;;;;5055057;28;20539;-79
2022/06/01 08:21:45;;;;;;;5.15;2.97;;;12.70;99.90;;;;;;5073452;28;20041;-79
2022/06/01 08:24:12;;;;;;;4.60;3.47;;;12.50;99.90;;;;;;5055276;28;20515;-78
2022/06/01 08:26:38;;;;;;;4.40;3.10;;;12.40;99.90;;;;;;5071745;28;20123;-77
2022/06/01 08:29:04;;;;;;;3.22;2.22;;;12.30;99.90;;;;;;5055042;28;20048;-76
2022/06/01 08:31:31;;;;;;;3.78;1.55;;;12.20;99.90;;;;;;5071856;28;20040;-77
2022/06/01 08:33:58;;;;;;;1.42;1.20;;;12.00;99.90;;;;;;5055179;28;20148;-77
2022/06/01 08:36:24;;;;;;;3.25;1.75;;;11.90;99.90;;;;;;5054889;28;20097;-76
2022/06/01 08:38:50;;;;;;;1.77;1.20;;;11.80;99.90;;;;;;5054955;28;20044;-76
2022/06/01 08:41:19;;;;;;;1.15;0.77;;;11.80;99.90;;;;;;5054452;28;20037;-77
2022/06/01 08:43:54;;;;;;;0.93;0.80;;;11.70;99.90;;;;;;5071742;28;20055;-77
2022/06/01 08:46:21;;;;;;;0.63;0.63;;;11.80;99.90;;;;;;5054934;28;20124;-77
2022/06/01 08:48:56;;;;;;;0.75;0.60;;;12.00;99.90;;;;;;5071949;28;20052;-76
2022/06/01 08:51:26;;;;;;;1.40;0.73;;;11.60;99.90;;;;;;5054861;28;20130;-76
2022/06/01 08:53:52;;;;;;;2.15;0.82;;;11.50;99.90;;;;;;5054797;28;20041;-76
2022/06/01 08:56:29;;;;;;;0.40;0.40;;;11.50;99.90;;;;;;5071511;28;20110;-76
2022/06/01 08:59:28;;;;;;;0.70;0.70;;;11.20;99.90;;;;;;5071542;28;20048;-76
2022/06/01 09:02:36;;;;;;;2.60;0.65;;;11.40;99.90;;;;;;5071372;28;20094;-76
2022/06/01 09:05:07;;;;;;;0.47;0.47;;;11.40;99.90;;;;;;5033996;28;20048;-76
2022/06/01 09:07:47;;;;;;;1.05;0.93;;;11.40;99.90;;;;;;5047983;28;20045;-76
2022/06/01 09:10:34;;;;;;;0.85;0.65;;;11.50;99.90;;;;;;5054686;28;20190;-76
2022/06/01 09:13:28;;;;;;;2.97;1.10;;;11.90;99.90;;;;;;5071559;28;20507;-76
2022/06/01 09:16:06;;;;;;;0.75;0.63;;;12.00;99.90;;;;;;5052458;28;20064;-76
2022/06/01 09:18:52;;;;;;;1.05;0.70;;;;;;;;;;5070903;28;20060;-76
2022/06/01 09:24:27;;;;;;;1.10;0.80;;;13.00;99.90;;;;;;5071075;28;20047;-75
2022/06/01 09:27:03;;;;;;;0.75;0.63;;;13.30;99.90;;;;;;5071077;28;20040;-75
2022/06/01 09:29:32;;;;;;;2.35;1.25;;;13.60;99.90;;;;;;5071366;28;20475;-74
2022/06/01 09:32:07;;;;;;;1.40;1.00;;;14.40;99.90;;;;;;5070930;28;20041;-75
2022/06/01 09:34:39;;;;;;;1.05;0.80;;;14.00;99.90;;;;;;5071017;28;20047;-75
2022/06/01 09:37:20;;;;;;;1.15;0.98;;;14.20;99.90;;;;;;5071196;28;20042;-75
2022/06/01 09:39:53;;;;;;;1.65;0.85;;;14.30;99.90;;;;;;5054200;28;20041;-74
2022/06/01 09:42:25;;;;;;;1.38;1.02;;;14.30;99.90;;;;;;5054474;28;20044;-75
2022/06/01 09:44:54;;;;;;;1.80;1.30;;;14.40;99.90;;;;;;5070930;28;20037;-74
2022/06/01 09:47:42;;;;;;;1.98;1.50;;;14.30;99.90;;;;;;5054135;28;20396;-74
2022/06/01 09:50:20;;;;;;;3.15;1.60;;;14.30;99.90;;;;;;5070823;28;20095;-74
2022/06/01 09:52:46;;;;;;;2.25;1.67;;;14.30;99.90;;;;;;5071337;28;20365;-73
2022/06/01 09:55:19;;;;;;;2.30;1.50;;;14.30;99.90;;;;;;5074602;28;20037;-74
2022/06/01 09:58:02;;;;;;;3.38;2.05;;;14.40;99.90;;;;;;5074592;28;20097;-74
2022/06/01 10:06:22;;;;;;;1.88;1.48;;;14.00;99.90;;;;;;5074275;28;20070;-75
2022/06/01 10:09:11;;;;;;;3.03;1.85;;;14.00;99.90;;;;;;5057387;28;20429;-72
2022/06/01 10:11:44;;;;;;;2.80;1.90;;;14.10;99.90;;;;;;5057701;28;20476;-73
2022/06/01 10:14:18;;;;;;;2.85;1.77;;;14.20;99.90;;;;;;5073989;28;20059;-74
2022/06/01 10:16:54;;;;;;;2.08;1.55;;;;;;;;;;5073955;28;20041;-74
2022/06/01 10:19:36;;;;;;;3.05;1.95;;;14.70;99.90;;;;;;5073748;28;20088;-74
2022/06/01 10:22:20;;;;;;;3.00;1.73;;;14.40;99.90;;;;;;5057370;28;20101;-75
2022/06/01 10:24:49;;;;;;;2.80;1.65;;;14.50;99.90;;;;;;5074528;28;20048;-75
2022/06/01 10:27:19;;;;;;;3.13;1.85;;;14.20;99.90;;;;;;5073936;28;20040;-77
2022/06/01 10:30:16;;;;;;;2.97;1.38;;;14.30;99.90;;;;;;5073811;28;20044;-74
2022/06/01 10:33:04;;;;;;;3.08;1.58;;;14.60;99.90;;;;;;5065048;28;20049;-73
2022/06/01 10:35:44;;;;;;;2.15;1.38;;;14.70;99.90;;;;;;5057164;28;20120;-76
2022/06/01 10:38:17;;;;;;;2.38;1.35;;;14.70;99.90;;;;;;5073738;28;20047;-75
2022/06/01 10:40:45;;;;;;;2.88;1.98;;;15.00;99.90;;;;;;5057333;28;20068;-75
2022/06/01 10:43:43;;;;;;;2.05;1.55;;;15.00;99.90;;;;;;5057018;28;20448;-74
2022/06/01 10:46:18;;;;;;;3.13;1.95;;;15.00;99.90;;;;;;5073724;28;20127;-74
2022/06/01 10:49:27;;;;;;;3.88;2.40;;;15.20;99.90;;;;;;5073747;28;20050;-74
2022/06/01 10:52:04;;;;;;;3.55;2.13;;;15.70;99.90;;;;;;5073624;28;20097;-74
2022/06/01 10:54:50;;;;;;;3.50;1.92;;;15.90;99.90;;;;;;5073211;28;20040;-74
2022/06/01 10:57:19;;;;;;;2.38;1.67;;;16.10;99.90;;;;;;5056406;28;20051;-74
2022/06/01 10:59:47;;;;;;;3.20;1.88;;;16.20;99.90;;;;;;5073137;28;20037;-74
2022/06/01 11:02:48;;;;;;;3.17;2.25;;;16.20;99.90;;;;;;5073065;28;20040;-74
2022/06/01 11:05:25;;;;;;;4.25;2.20;;;16.20;99.90;;;;;;5072588;28;20028;-73
2022/06/01 11:08:09;;;;;;;2.20;1.48;;;16.20;99.90;;;;;;5072967;28;20124;-73
2022/06/01 11:10:54;;;;;;;2.17;1.58;;;16.30;99.90;;;;;;5056230;28;20064;-74
2022/06/01 11:13:58;;;;;;;2.47;2.00;;;16.40;99.90;;;;;;5072838;28;20406;-73
2022/06/01 11:16:39;;;;;;;4.05;1.67;;;16.00;99.90;;;;;;5072781;28;20131;-74
2022/06/01 11:19:26;;;;;;;2.53;1.48;;;15.70;99.90;;;;;;5055712;28;20056;-73
2022/06/01 11:22:03;;;;;;;2.50;1.42;;;15.30;99.90;;;;;;5072970;28;20048;-73
2022/06/01 11:24:53;;;;;;;2.78;1.40;;;;;;;;;;5056092;28;20052;-75
2022/06/01 11:28:02;;;;;;;2.33;1.30;;;14.60;99.90;;;;;;5067608;28;20048;-76
2022/06/01 11:30:46;;;;;;;1.10;0.90;;;14.00;99.90;;;;;;5072792;28;20102;-77
2022/06/01 11:33:33;;;;;;;2.25;1.50;;;13.30;99.90;;;;;;5056050;28;20044;-75
2022/06/01 11:36:13;;;;;;;3.53;1.80;;;13.00;99.90;;;;;;5072968;28;20391;-72
2022/06/01 11:38:46;;;;;;;2.90;1.50;;;12.20;99.90;;;;;;5072352;28;20040;-72
2022/06/01 11:41:26;;;;;;;1.98;1.58;;;11.60;99.90;;;;;;5072399;28;20098;-72
2022/06/01 11:43:57;;;;;;;2.28;1.42;;;11.40;99.90;;;;;;5072366;28;20048;-73
2022/06/01 11:46:35;;;;;;;1.08;0.90;;;11.60;99.90;;;;;;5072315;28;20040;-72
2022/06/01 11:49:35;;;;;;;1.92;1.20;;;11.10;99.90;;;;;;5072278;28;20392;-72
2022/06/01 11:52:34;;;;;;;2.35;1.27;;;10.70;99.90;;;;;;5055806;28;20391;-72
2022/06/01 11:55:15;;;;;;;2.53;0.90;;;10.70;99.90;;;;;;5064445;28;20106;-73
2022/06/01 11:57:44;;;;;;;1.45;0.77;;;10.80;99.90;;;;;;5072245;28;20132;-73
2022/06/01 12:00:32;;;;;;;2.15;0.80;;;10.90;99.90;;;;;;5072018;28;20037;-73
2022/06/01 12:03:24;;;;;;;1.08;0.47;;;11.00;99.90;;;;;;5072058;28;20403;-73
2022/06/01 12:06:11;;;;;;;1.75;0.73;;;11.20;99.90;;;;;;5072265;28;20132;-73
2022/06/01 12:08:39;;;;;;;1.20;0.70;;;11.50;99.90;;;;;;5072231;28;20071;-73
2022/06/01 12:11:07;;;;;;;1.10;0.70;;;;;;;;;;5055211;28;20039;-74
2022/06/01 12:13:36;;;;;;;0.82;0.55;;;;;;;;;;5071923;28;20148;-74
2022/06/01 12:16:04;;;;;;;1.20;0.50;;;12.60;99.90;;;;;;5054365;28;20102;-75
2022/06/01 12:18:35;;;;;;;0.77;0.40;;;12.90;99.90;;;;;;5071658;28;20407;-74
2022/06/01 12:21:21;;;;;;;0.20;0.20;;;;;;;;;;5071845;28;20040;-73
2022/06/01 12:30:13;;;;;;;0.50;0.40;;;13.50;99.90;;;;;;5071737;28;20053;-73
2022/06/01 12:32:58;;;;;;;0.35;0.30;;;13.60;99.90;;;;;;5064777;28;20048;-73
2022/06/01 12:35:26;;;;;;;0.50;0.40;;;13.60;99.90;;;;;;5054916;28;20140;-72
2022/06/01 12:37:58;;;;;;;0.30;0.30;;;13.60;99.90;;;;;;5071570;28;20096;-72
2022/06/01 12:40:24;;;;;;;0.52;0.43;;;13.70;99.90;;;;;;5071568;28;20047;-73
2022/06/01 12:42:53;;;;;;;0.30;0.30;;;13.90;99.90;;;;;;5054898;28;20041;-72
2022/06/01 12:45:21;;;;;;;0.40;0.40;;;14.00;99.90;;;;;;5071533;28;20049;-73
2022/06/01 12:48:05;;;;;;;0.20;0.20;;;14.30;99.90;;;;;;5071765;28;20087;-72
2022/06/01 12:50:32;;;;;;;0.40;0.30;;;14.40;99.90;;;;;;5071801;28;20488;-72
2022/06/01 12:53:13;;;;;;;1.20;0.52;;;14.60;99.90;;;;;;5055052;28;20460;-72
2022/06/01 12:55:40;;;;;;;0.68;0.57;;;14.50;99.90;;;;;;5071615;28;20044;-72
2022/06/01 12:58:15;;;;;;;0.73;0.70;;;14.50;99.90;;;;;;5072587;28;20055;-72
2022/06/01 13:00:46;;;;;;;1.15;0.57;;;14.50;99.90;;;;;;5071693;28;20051;-72
2022/06/01 13:03:12;;;;;;;;;;;14.50;99.90;;;;;;5072246;28;20190;-72
2022/06/01 13:05:49;;;;;;;1.42;0.98;;;14.70;99.90;;;;;;5054660;28;20003;-72
2022/06/01 13:08:25;;;;;;;2.10;1.48;;;15.00;99.90;;;;;;5071524;28;20040;-72
2022/06/01 13:10:51;;;;;;;2.63;1.58;;;15.50;99.90;;;;;;5071344;28;20041;-73
2022/06/01 13:13:26;;;;;;;2.22;1.58;;;15.40;99.90;;;;;;5071532;28;20083;-73
2022/06/01 13:16:01;;;;;;;1.38;0.85;;;15.20;99.90;;;;;;5071241;28;20122;-73
2022/06/01 13:18:35;;;;;;;0.90;0.60;;;14.80;99.90;;;;;;5054457;28;20044;-73
2022/06/01 13:21:32;;;;;;;0.40;0.40;;;14.40;99.90;;;;;;5071026;28;20105;-73
2022/06/01 13:23:59;;;;;;;1.67;0.40;;;14.00;99.90;;;;;;5052727;28;20195;-73
2022/06/01 13:26:36;;;;;;;0.38;0.30;;;13.70;99.90;;;;;;5071185;28;20040;-73
2022/06/01 13:29:33;;;;;;;0.40;0.40;;;13.50;99.90;;;;;;5058419;28;20055;-72
2022/06/01 13:32:08;;;;;;;0.40;0.40;;;13.40;99.90;;;;;;5074998;28;20094;-73
2022/06/01 13:34:49;;;;;;;0.55;0.40;;;13.30;99.90;;;;;;5074962;28;20117;-72
2022/06/01 13:37:28;;;;;;;1.88;0.52;;;13.40;99.90;;;;;;5075287;28;20134;-73
2022/06/01 13:40:03;;;;;;;0.52;0.45;;;13.40;99.90;;;;;;5058358;28;20076;-73